Aérodrome :
LOGIN :

S'inscrire | Disclaimer

   EN    FR    IT 

 










Légende :    VFR   VFR Marginal   IFR   IFR Intensif   IFR Très Intensif
Visi : 
Plafond : 
>= 8 km
>= 3000ft
5 à 8 km
1000 à 3000 ft
1500m à 5 km
500 à 1000 ft
800 à 1500m
200 à 500 ft
< 800m
< 200 ft
Symboles :   Orages  Brouillard  Fortes neiges  Fortes précipitations  Vent > 20 kt
SIGMETs :   Divers  Orages  Givrage  Turbulence  Onde Orograph.  Cendres Volcan.







- Altitude de l'aérodrome : 1276 ft
- Code IATA : STR


EDDS - Stuttgart

DERNIER METAR :
  • 301020Z VRB04KT 9999 FEW037 SCT300 16/07 Q1027 NOSIG

METARs EXPIRÉS :
  • 300950Z 09005KT 030V140 9999 FEW031 SCT300 16/07 Q1027 NOSIG
  • 300920Z 08005KT 030V110 9999 FEW029 SCT300 14/07 Q1027 NOSIG
  • 300850Z 09003KT 010V130 9999 FEW026 SCT300 14/07 Q1028 NOSIG
  • 300820Z VRB02KT CAVOK 13/07 Q1028 NOSIG
  • 300750Z VRB02KT CAVOK 11/06 Q1028 NOSIG

TAF TAF EDDS
Valide du 30 à 06h jusqu'au 31 à 06h UTC


300500Z 3006/3106 VRB03KT CAVOK
TEMPO 3012/3018 05006KT
Pas de NOTAMs connus pour ce terrain.



MET'MAP, la Météo Aéronautique d'un coup d'oeil ! - Copyright ORBIFLY Décembre 2007 - Disclaimer

ORBIFLY MET'MAP TEAM :

Programmation & Développement : Alexandra Zaïnal
Conception & Développement : Baudouin d'Aumeries
Co-Programmation & Développement : Marc-Olivier Méhu
Soutien technique & logistique : Manuel Goepfert

Contact : metmap@orbifly.com




SOURCES & CREDITS :

   NOAA